Time;durP1;ratioP1;P1;durP2;ratioP2;P2;SDS_P1;SDS_P2;PMS_P1;PMS_P2;Temp;Humidity;BMP_temperature;BMP_pressure;BME280_temperature;BME280_humidity;BME280_pressure;Samples;Min_cycle;Max_cycle;Signal;HPM_P1;HPM_P2
2023/04/11 00:03:38;;;;;;;5.82;5.32;;;;;;;10.00;55.58;99662.78;10500588;28;20040;-72
2023/04/11 00:08:43;;;;;;;6.32;5.82;;;;;;;9.94;56.03;99657.78;10501666;28;20044;-74
2023/04/11 00:13:50;;;;;;;6.18;5.75;;;;;;;9.91;56.20;99644.75;10483184;28;20106;-73
2023/04/11 00:18:55;;;;;;;5.35;4.95;;;;;;;10.08;55.33;99617.88;10481068;28;20094;-73
2023/04/11 00:23:58;;;;;;;5.07;4.68;;;;;;;10.60;53.36;99614.19;10499169;28;20128;-73
2023/04/11 00:28:59;;;;;;;5.57;5.20;;;;;;;10.66;53.29;99596.47;10499241;28;20044;-73
2023/04/11 00:34:01;;;;;;;5.82;5.43;;;;;;;10.49;53.89;99583.97;10499036;28;20048;-72
2023/04/11 00:39:04;;;;;;;6.03;5.53;;;;;;;10.40;53.95;99568.56;10499653;28;20086;-73
2023/04/11 00:44:07;;;;;;;5.88;5.47;;;;;;;10.52;53.60;99562.84;10499342;28;20451;-72
2023/04/11 00:49:10;;;;;;;5.82;5.32;;;;;;;10.59;53.21;99553.81;10498397;28;20098;-72
2023/04/11 00:54:12;;;;;;;5.90;5.40;;;;;;;10.53;53.37;99546.16;10463981;28;20453;-73
2023/04/11 00:59:13;;;;;;;5.35;4.95;;;;;;;10.23;54.47;99529.81;10499565;28;20124;-73
2023/04/11 01:04:18;;;;;;;6.03;5.53;;;;;;;10.54;53.08;99535.59;10481049;28;20547;-73
2023/04/11 01:09:23;;;;;;;5.75;5.32;;;;;;;10.39;53.99;99536.19;10480453;28;20044;-73
2023/04/11 01:14:26;;;;;;;5.45;5.05;;;;;;;10.46;54.10;99542.94;10499363;28;20056;-73
2023/04/11 01:19:28;;;;;;;5.45;4.97;;;;;;;10.13;54.96;99549.44;10498391;28;20417;-73
2023/04/11 01:24:30;;;;;;;5.80;5.40;;;;;;;9.87;55.37;99548.63;10480619;28;20045;-73
2023/04/11 01:29:32;;;;;;;5.78;5.38;;;;;;;9.75;56.03;99554.34;10498076;28;20445;-73
2023/04/11 01:34:36;;;;;;;5.13;4.72;;;;;;;9.72;56.27;99554.44;10485795;28;20052;-73
2023/04/11 01:39:38;;;;;;;5.63;5.22;;;;;;;9.79;55.83;99548.06;10488567;28;20098;-73
2023/04/11 01:44:40;;;;;;;5.72;5.32;;;;;;;9.88;55.84;99550.38;10488520;28;20045;-74
2023/04/11 01:49:42;;;;;;;4.95;4.60;;;;;;;9.85;55.73;99535.56;10488403;28;20045;-74
2023/04/11 01:54:44;;;;;;;4.78;4.47;;;;;;;10.19;54.15;99494.06;10506087;28;20454;-72
2023/04/11 01:59:46;;;;;;;4.82;4.53;;;;;;;10.44;52.97;99496.59;10505842;28;20043;-73
2023/04/11 02:04:48;;;;;;;5.53;5.03;;;;;;;10.33;53.14;99490.00;10487514;28;20045;-72
2023/04/11 02:09:50;;;;;;;5.78;5.38;;;;;;;10.08;54.54;99463.81;10488157;28;20040;-72
2023/04/11 02:14:52;;;;;;;5.30;4.90;;;;;;;9.84;55.34;99452.47;10486900;28;20052;-72
2023/04/11 02:19:54;;;;;;;5.50;5.10;;;;;;;9.96;55.25;99426.66;10486573;28;20102;-72
2023/04/11 02:24:55;;;;;;;5.78;5.38;;;;;;;10.07;54.95;99412.22;10504402;28;20103;-72
2023/04/11 02:29:58;;;;;;;5.60;5.20;;;;;;;9.99;54.71;99398.53;10487230;28;20051;-72
2023/04/11 02:35:01;;;;;;;5.25;4.80;;;;;;;10.01;54.90;99394.06;10468904;28;20052;-72
2023/04/11 02:40:03;;;;;;;5.50;5.10;;;;;;;10.18;53.81;99384.66;10502895;28;20045;-72
2023/04/11 02:45:05;;;;;;;5.13;4.70;;;;;;;10.28;53.46;99381.63;10502691;28;20512;-73
2023/04/11 02:50:08;;;;;;;5.30;4.90;;;;;;;10.10;54.07;99370.06;10484661;28;20064;-73
2023/04/11 02:55:14;;;;;;;5.75;4.63;;;;;;;10.15;53.43;99374.28;10484879;28;20517;-73
2023/04/11 03:00:18;;;;;;;4.22;3.88;;;;;;;10.03;54.19;99365.97;10503083;28;20501;-73
2023/04/11 03:05:25;;;;;;;4.53;4.22;;;;;;;9.85;54.95;99367.56;10484473;28;20051;-73
2023/04/11 03:10:28;;;;;;;5.05;4.68;;;;;;;9.74;55.44;99369.78;10485288;28;20045;-74
2023/04/11 03:15:31;;;;;;;4.57;4.20;;;;;;;9.73;55.86;99364.56;10485340;28;20136;-73
2023/04/11 03:20:37;;;;;;;4.90;4.50;;;;;;;9.60;56.99;99349.28;10485773;28;20040;-73
2023/04/11 03:25:43;;;;;;;5.13;4.63;;;;;;;9.77;55.97;99346.00;10484745;28;20402;-73
2023/04/11 03:30:47;;;;;;;4.78;4.45;;;;;;;9.87;54.73;99336.00;10484933;28;20045;-73
2023/04/11 03:35:53;;;;;;;5.15;4.68;;;;;;;9.74;55.69;99338.28;10483962;28;20083;-73
2023/04/11 03:40:55;;;;;;;5.15;4.75;;;;;;;9.88;54.61;99329.84;10483201;28;20051;-73
2023/04/11 03:45:59;;;;;;;5.25;4.85;;;;;;;9.78;54.98;99332.00;10482925;28;20060;-73
2023/04/11 03:51:10;;;;;;;4.90;4.43;;;;;;;9.70;55.83;99320.09;10501199;28;20049;-73
2023/04/11 03:56:25;;;;;;;6.03;5.45;;;;;;;10.15;54.30;99321.75;10482058;28;20128;-73
2023/04/11 04:01:27;;;;;;;5.55;5.13;;;;;;;10.25;54.07;99329.22;10501095;28;20108;-73
2023/04/11 04:06:34;;;;;;;6.80;6.22;;;;;;;10.17;56.28;99330.41;10466890;28;20122;-74
2023/04/11 04:11:37;;;;;;;5.60;4.97;;;;;;;10.16;56.68;99326.09;10482501;28;20041;-73
2023/04/11 04:16:39;;;;;;;5.65;5.25;;;;;;;9.84;58.34;99312.50;10500730;28;20512;-72
2023/04/11 04:21:42;;;;;;;6.53;5.93;;;;;;;9.90;58.56;99300.91;10482305;28;20139;-73
2023/04/11 04:26:48;;;;;;;6.40;5.90;;;;;;;9.74;58.80;99303.28;10482305;28;20048;-73
2023/04/11 04:32:09;;;;;;;6.07;5.47;;;;;;;9.58;61.85;99310.91;10482309;28;20044;-73
2023/04/11 04:37:23;;;;;;;6.68;6.07;;;;;;;9.44;63.89;99313.22;10482239;28;20135;-72
2023/04/11 04:42:35;;;;;;;7.15;6.50;;;;;;;9.51;68.77;99323.41;10480881;28;20386;-72
2023/04/11 04:47:39;;;;;;;6.18;5.68;;;;;;;9.18;72.99;99322.09;10464661;28;20044;-72
2023/04/11 04:52:41;;;;;;;5.57;5.07;;;;;;;9.45;75.05;99330.66;10480852;28;20406;-70
2023/04/11 04:57:43;;;;;;;5.43;4.93;;;;;;;9.70;74.18;99304.34;10498261;28;20106;-70
2023/04/11 05:02:46;;;;;;;5.22;4.72;;;;;;;9.56;76.35;99312.72;10498727;28;20055;-71
2023/04/11 05:07:49;;;;;;;5.10;4.60;;;;;;;9.44;80.76;99314.09;10485374;28;20052;-71
2023/04/11 05:12:52;;;;;;;6.28;5.28;;;;;;;9.30;83.50;99303.28;10488491;28;20066;-70
2023/04/11 05:17:54;;;;;;;6.75;6.13;;;;;;;9.07;87.01;99285.75;10487995;28;20184;-70
2023/04/11 05:22:56;;;;;;;5.57;5.10;;;;;;;9.38;80.14;99281.97;10488029;28;20140;-71
2023/04/11 05:27:58;;;;;;;6.57;6.03;;;;;;;9.23;83.33;99273.78;10506101;28;20079;-71
2023/04/11 05:33:01;;;;;;;6.75;6.25;;;;;;;9.05;83.72;99270.09;10488278;28;20040;-70
2023/04/11 05:38:03;;;;;;;6.20;5.70;;;;;;;9.12;84.60;99285.59;10487408;28;20560;-70
2023/04/11 05:43:05;;;;;;;6.72;6.22;;;;;;;9.47;78.41;99285.09;10505654;28;20048;-71
2023/04/11 05:48:07;;;;;;;6.20;5.70;;;;;;;9.50;80.27;99282.34;10487265;28;20051;-70
2023/04/11 05:53:09;;;;;;;6.53;6.03;;;;;;;9.45;80.13;99268.56;10470719;28;20048;-71
2023/04/11 05:58:11;;;;;;;7.00;6.50;;;;;;;9.34;82.44;99262.88;10470706;28;20052;-72
2023/04/11 06:03:12;;;;;;;7.30;6.80;;;;;;;9.16;85.09;99266.22;10487942;28;20044;-70
2023/04/11 06:08:14;;;;;;;7.03;6.43;;;;;;;9.34;83.62;99262.88;10503702;28;20051;-70
2023/04/11 06:13:16;;;;;;;7.43;6.82;;;;;;;9.19;85.24;99266.94;10498565;28;20439;-70
2023/04/11 06:18:18;;;;;;;7.45;6.80;;;;;;;9.23;85.20;99271.16;10498150;28;20056;-70
2023/04/11 06:23:20;;;;;;;7.93;7.32;;;;;;;9.26;85.74;99267.59;10463856;28;20045;-72
2023/04/11 06:28:22;;;;;;;8.10;7.40;;;;;;;9.26;85.42;99272.84;10498723;28;20063;-71
2023/04/11 06:33:24;;;;;;;7.88;7.22;;;;;;;9.23;87.16;99270.31;10498984;28;20355;-70
2023/04/11 06:38:26;;;;;;;6.93;6.35;;;;;;;9.48;84.05;99286.81;10498474;28;20119;-71
2023/04/11 06:43:27;;;;;;;6.60;6.05;;;;;;;9.53;83.98;99297.97;10498026;28;20473;-70
2023/04/11 06:48:29;;;;;;;6.57;5.97;;;;;;;9.53;86.00;99305.84;10480393;28;20455;-70
2023/04/11 06:53:31;;;;;;;6.18;5.78;;;;;;;9.38;89.79;99308.19;10497824;28;20100;-70
2023/04/11 06:58:33;;;;;;;6.57;6.07;;;;;;;9.23;95.65;99310.50;10479135;28;20056;-71
2023/04/11 07:03:35;;;;;;;6.90;6.40;;;;;;;9.09;100.00;99318.88;10496448;28;20037;-71
2023/04/11 07:08:37;;;;;;;7.55;6.72;;;;;;;8.85;100.00;99327.63;10478138;28;20063;-71
2023/04/11 07:13:39;;;;;;;6.28;5.75;;;;;;;8.93;100.00;99322.97;10478467;28;20047;-70
2023/04/11 07:18:41;;;;;;;5.25;4.85;;;;;;;8.88;100.00;99334.53;10477498;28;20062;-70
2023/04/11 07:23:43;;;;;;;4.72;4.43;;;;;;;8.80;100.00;99340.91;10494896;28;20040;-72
2023/04/11 07:28:46;;;;;;;4.13;3.72;;;;;;;8.83;100.00;99332.94;10459658;28;20053;-70
2023/04/11 07:33:48;;;;;;;3.92;3.25;;;;;;;8.90;100.00;99325.72;10494445;28;20398;-70
2023/04/11 07:38:51;;;;;;;2.72;2.53;;;;;;;8.90;100.00;99341.47;10509605;28;20179;-71
2023/04/11 07:43:52;;;;;;;3.05;2.85;;;;;;;8.94;100.00;99339.56;10535926;28;20151;-70
2023/04/11 07:48:55;;;;;;;3.75;3.10;;;;;;;8.96;100.00;99351.69;10536073;28;20063;-70
2023/04/11 07:53:56;;;;;;;3.72;3.03;;;;;;;8.93;100.00;99343.09;10503408;28;20412;-70
2023/04/11 07:59:00;;;;;;;3.58;3.28;;;;;;;9.01;100.00;99339.28;10494380;28;20058;-71
2023/04/11 08:04:02;;;;;;;4.90;3.22;;;;;;;9.06;100.00;99352.22;10517884;28;20436;-70
2023/04/11 08:09:04;;;;;;;3.42;3.13;;;;;;;9.15;100.00;99351.88;10536336;28;20097;-70
2023/04/11 08:14:07;;;;;;;3.10;2.83;;;;;;;9.27;100.00;99342.72;10519500;28;20051;-71
2023/04/11 08:19:10;;;;;;;2.97;2.67;;;;;;;9.42;99.61;99333.41;10524621;28;20082;-71
2023/04/11 08:24:12;;;;;;;3.08;2.50;;;;;;;9.57;97.29;99333.69;10506927;28;20075;-70
2023/04/11 08:29:14;;;;;;;3.13;2.85;;;;;;;9.57;99.09;99332.84;10493493;28;20132;-70
2023/04/11 08:34:15;;;;;;;2.58;2.03;;;;;;;9.60;93.92;99338.78;10492265;28;20116;-71
2023/04/11 08:39:17;;;;;;;2.38;2.17;;;;;;;9.53;95.05;99332.09;10492683;28;20484;-71
2023/04/11 08:44:20;;;;;;;4.70;2.72;;;;;;;9.49;96.30;99338.38;10473841;28;20040;-71
2023/04/11 08:49:21;;;;;;;3.53;2.33;;;;;;;9.47;95.76;99344.56;10492580;28;20113;-71
2023/04/11 08:54:23;;;;;;;3.13;1.98;;;;;;;9.73;89.90;99361.94;10492350;28;20040;-71
2023/04/11 08:59:26;;;;;;;3.30;2.15;;;;;;;9.66;93.14;99358.72;10473473;28;20056;-71
2023/04/11 09:04:39;;;;;;;3.50;1.50;;;;;;;9.67;92.29;99351.69;10473610;28;20041;-72
2023/04/11 09:09:42;;;;;;;6.13;2.97;;;;;;;9.57;92.73;99377.44;10491770;28;20048;-74
2023/04/11 09:14:44;;;;;;;3.38;1.40;;;;;;;9.46;90.49;99369.09;10475218;28;20383;-75
2023/04/11 09:19:45;;;;;;;4.43;1.60;;;;;;;9.67;89.49;99365.66;10474752;28;20052;-76
2023/04/11 09:25:01;;;;;;;2.38;1.30;;;;;;;9.76;90.34;99356.56;10457855;28;20053;-76
2023/04/11 09:30:04;;;;;;;3.90;1.50;;;;;;;9.99;89.35;99345.16;10491935;28;20058;-75
2023/04/11 09:35:17;;;;;;;2.03;1.55;;;;;;;10.05;90.98;99353.66;10457351;28;20040;-75
2023/04/11 09:40:23;;;;;;;3.10;2.00;;;;;;;10.27;85.65;99332.66;10473534;28;20379;-77
2023/04/11 09:45:26;;;;;;;4.38;1.83;;;;;;;10.48;83.28;99319.50;10490638;28;20098;-76
2023/04/11 09:50:28;;;;;;;4.35;1.50;;;;;;;10.61;84.26;99312.81;10471202;28;20426;-76
2023/04/11 09:55:31;;;;;;;3.38;1.75;;;;;;;10.74;85.47;99313.97;10494730;28;20068;-76
2023/04/11 10:00:33;;;;;;;4.82;1.58;;;;;;;11.04;79.15;99314.41;10497777;28;20088;-76
2023/04/11 10:05:36;;;;;;;3.42;1.35;;;;;;;11.23;77.23;99316.19;10497419;28;20071;-77
2023/04/11 10:10:42;;;;;;;2.88;1.50;;;;;;;11.36;78.74;99309.44;10462165;28;20040;-75
2023/04/11 10:16:15;;;;;;;3.72;1.20;;;;;;;11.46;73.66;99315.13;10498079;28;20123;-77
2023/04/11 10:21:29;;;;;;;3.50;1.50;;;;;;;11.96;71.78;99314.53;10497466;28;20048;-77
2023/04/11 10:26:59;;;;;;;2.97;1.70;;;;;;;12.29;69.03;99304.94;10478863;28;20428;-75
2023/04/11 10:32:20;;;;;;;4.72;1.88;;;;;;;13.07;65.38;99292.97;10478832;28;20135;-77
2023/04/11 10:37:36;;;;;;;5.28;1.52;;;;;;;13.19;59.15;99299.34;10478230;28;20040;-76
2023/04/11 10:42:42;;;;;;;4.28;1.38;;;;;;;12.85;59.42;99302.97;10495873;28;20120;-76
2023/04/11 10:47:56;;;;;;;3.80;1.80;;;;;;;13.04;61.36;99300.19;10495993;28;20413;-76
2023/04/11 10:52:59;;;;;;;5.15;1.83;;;;;;;12.44;62.19;99313.88;10477448;28;20114;-74
2023/04/11 10:58:07;;;;;;;4.30;1.40;;;;;;;11.95;65.17;99366.34;10495527;28;20373;-73
2023/04/11 11:03:20;;;;;;;6.07;1.25;;;;;;;9.38;74.06;99415.75;10494263;28;20096;-73
2023/04/11 11:08:29;;;;;;;2.05;0.70;;;;;;;7.87;86.40;99377.19;10495294;28;20493;-73
2023/04/11 11:13:41;;;;;;;2.45;0.80;;;;;;;8.09;93.91;99363.34;10476360;28;20097;-73
2023/04/11 11:18:45;;;;;;;6.68;1.42;;;;;;;8.50;92.78;99362.91;10494683;28;20130;-72
2023/04/11 11:23:53;;;;;;;2.28;0.80;;;;;;;9.48;91.23;99356.81;10493630;28;20436;-73
2023/04/11 11:28:56;;;;;;;4.30;0.98;;;;;;;10.38;90.03;99358.47;10475927;28;20090;-73
2023/04/11 11:33:58;;;;;;;1.58;0.98;;;;;;;11.36;86.73;99375.22;10458208;28;20491;-73
2023/04/11 11:39:20;;;;;;;5.30;1.50;;;;;;;10.96;81.27;99449.78;10493281;28;20091;-73
2023/04/11 11:44:28;;;;;;;3.10;0.90;;;;;;;9.72;83.40;99483.59;10474847;28;20075;-73
2023/04/11 11:49:45;;;;;;;2.03;0.55;;;;;;;8.23;86.92;99464.16;10492764;28;20079;-73
2023/04/11 11:54:47;;;;;;;2.10;0.50;;;;;;;8.08;89.45;99460.28;10493287;28;20067;-75
2023/04/11 11:59:53;;;;;;;1.65;0.55;;;;;;;8.12;88.27;99455.81;10493845;28;20040;-74
2023/04/11 12:05:00;;;;;;;2.00;0.70;;;;;;;8.68;89.82;99458.41;10493196;28;20048;-73
2023/04/11 12:10:07;;;;;;;2.47;0.70;;;;;;;9.23;86.82;99457.34;10492784;28;20040;-74
2023/04/11 12:15:11;;;;;;;1.60;0.80;;;;;;;9.51;88.50;99464.22;10492443;28;20111;-73
2023/04/11 12:20:14;;;;;;;1.63;0.70;;;;;;;10.22;81.64;99460.63;10492480;28;20041;-73
2023/04/11 12:25:16;;;;;;;2.78;0.82;;;;;;;10.46;82.08;99474.63;10491668;28;20041;-74
2023/04/11 12:30:18;;;;;;;2.67;0.93;;;;;;;10.35;81.26;99456.63;10473624;28;20095;-73
2023/04/11 12:35:20;;;;;;;1.27;0.93;;;;;;;10.50;81.93;99463.06;10491754;28;20040;-75
2023/04/11 12:40:23;;;;;;;3.05;1.38;;;;;;;10.78;77.95;99456.66;10457294;28;20053;-72
2023/04/11 12:45:26;;;;;;;1.65;1.00;;;;;;;11.28;72.53;99459.75;10491092;28;20119;-73
2023/04/11 12:50:27;;;;;;;2.80;1.30;;;;;;;11.53;71.16;99453.41;10473798;28;20048;-73
2023/04/11 12:55:29;;;;;;;2.25;1.10;;;;;;;11.73;68.23;99449.88;10490463;28;20064;-72
2023/04/11 13:00:31;;;;;;;2.65;1.17;;;;;;;11.60;64.97;99457.50;10491015;28;20051;-74
2023/04/11 13:05:34;;;;;;;2.67;1.15;;;;;;;11.65;67.16;99452.88;10490744;28;20040;-74
2023/04/11 13:10:37;;;;;;;3.80;1.02;;;;;;;11.73;63.90;99452.50;10491240;28;20562;-73
2023/04/11 13:15:38;;;;;;;2.28;1.20;;;;;;;11.52;63.62;99449.09;10491874;28;20391;-73
2023/04/11 13:20:41;;;;;;;2.40;1.20;;;;;;;11.66;61.65;99448.44;10492575;28;20044;-73
2023/04/11 13:25:43;;;;;;;2.08;0.93;;;;;;;11.53;61.87;99443.75;10473858;28;20121;-72
2023/04/11 13:30:45;;;;;;;2.17;1.20;;;;;;;11.30;59.04;99447.41;10498123;28;20378;-72
2023/04/11 13:35:47;;;;;;;2.75;0.90;;;;;;;11.22;59.41;99453.91;10500830;28;20075;-73
2023/04/11 13:40:49;;;;;;;3.22;1.00;;;;;;;11.37;59.58;99445.34;10499850;28;20044;-73
2023/04/11 13:45:50;;;;;;;3.03;1.38;;;;;;;11.33;60.61;99442.00;10499496;28;20108;-73
2023/04/11 13:50:56;;;;;;;2.95;1.15;;;;;;;11.44;61.34;99445.94;10481593;28;20551;-74
2023/04/11 13:55:58;;;;;;;2.92;1.48;;;;;;;11.45;59.62;99445.00;10498786;28;20110;-74
2023/04/11 14:01:00;;;;;;;1.92;1.20;;;;;;;11.42;61.25;99446.00;10480007;28;20102;-74
2023/04/11 14:06:02;;;;;;;3.25;1.40;;;;;;;11.73;61.54;99449.88;10498176;28;20563;-74
2023/04/11 14:11:04;;;;;;;3.65;1.33;;;;;;;11.84;59.16;99431.84;10463745;28;20053;-73
2023/04/11 14:16:07;;;;;;;2.72;2.03;;;;;;;11.65;63.08;99446.75;10480664;28;20127;-73
2023/04/11 14:21:10;;;;;;;2.28;1.58;;;;;;;11.45;61.90;99453.75;10498689;28;20476;-72
2023/04/11 14:26:12;;;;;;;2.65;1.05;;;;;;;11.44;60.29;99449.41;10463920;28;20075;-72
2023/04/11 14:31:14;;;;;;;2.05;0.90;;;;;;;11.14;59.27;99458.66;10497563;28;20105;-72
2023/04/11 14:36:16;;;;;;;1.42;0.80;;;;;;;11.24;55.87;99462.59;10496907;28;20378;-72
2023/04/11 14:41:18;;;;;;;2.40;0.88;;;;;;;11.25;55.92;99469.56;10478487;28;20055;-72
2023/04/11 14:46:20;;;;;;;2.10;1.00;;;;;;;11.15;56.77;99479.63;10497915;28;20434;-73
2023/04/11 14:51:25;;;;;;;2.00;0.80;;;;;;;10.65;57.63;99502.78;10463527;28;20106;-72
2023/04/11 14:56:27;;;;;;;10.05;0.73;;;;;;;10.33;56.45;99520.69;10481143;28;20428;-72
2023/04/11 15:01:30;;;;;;;1.75;0.50;;;;;;;9.95;54.07;99548.34;10479351;28;20348;-73
2023/04/11 15:06:33;;;;;;;2.47;0.50;;;;;;;9.90;58.15;99558.16;10477894;28;20505;-73
2023/04/11 15:11:35;;;;;;;2.55;0.77;;;;;;;9.53;58.55;99565.59;10477974;28;20469;-72
2023/04/11 15:16:37;;;;;;;1.33;0.50;;;;;;;9.20;56.42;99567.59;10495826;28;20112;-73
2023/04/11 15:21:39;;;;;;;2.28;0.77;;;;;;;9.10;58.51;99571.44;10496132;28;20471;-73
2023/04/11 15:26:44;;;;;;;4.57;0.50;;;;;;;9.01;53.14;99524.56;10495285;28;20202;-73
2023/04/11 15:31:46;;;;;;;2.25;0.50;;;;;;;9.33;51.13;99511.19;10476616;28;20032;-72
2023/04/11 15:36:48;;;;;;;1.67;0.80;;;;;;;9.47;53.12;99509.84;10494671;28;20104;-73
2023/04/11 15:41:50;;;;;;;0.80;0.47;;;;;;;9.83;53.18;99516.41;10476776;28;20126;-72
2023/04/11 15:46:52;;;;;;;1.80;0.70;;;;;;;9.99;54.46;99500.06;10495140;28;20067;-74
2023/04/11 15:51:54;;;;;;;4.00;0.80;;;;;;;10.07;53.36;99513.75;10475704;28;20052;-73
2023/04/11 15:56:56;;;;;;;2.72;0.73;;;;;;;10.08;54.32;99516.31;10495879;28;20048;-72
2023/04/11 16:01:58;;;;;;;1.85;0.77;;;;;;;10.04;57.37;99519.97;10494997;28;20065;-72
2023/04/11 16:07:01;;;;;;;1.48;0.88;;;;;;;9.94;57.64;99528.28;10495034;28;20518;-72
2023/04/11 16:12:06;;;;;;;3.05;1.08;;;;;;;9.62;60.58;99546.06;10498566;28;20397;-73
2023/04/11 16:17:09;;;;;;;3.50;1.00;;;;;;;9.39;62.75;99546.88;10513230;28;20102;-73
2023/04/11 16:22:11;;;;;;;1.92;0.70;;;;;;;9.66;54.15;99512.69;10522014;28;20127;-71
2023/04/11 16:27:13;;;;;;;1.77;0.43;;;;;;;10.17;49.23;99509.00;10520219;28;20147;-71
2023/04/11 16:32:15;;;;;;;0.95;0.50;;;;;;;10.66;49.92;99525.50;10504692;28;20451;-71
2023/04/11 16:37:17;;;;;;;2.53;0.93;;;;;;;10.80;52.89;99525.81;10517852;28;20097;-72
2023/04/11 16:42:19;;;;;;;2.85;1.30;;;;;;;10.74;54.56;99531.31;10518178;28;20051;-72
2023/04/11 16:47:24;;;;;;;3.00;0.98;;;;;;;10.71;55.04;99540.16;10535805;28;20044;-72
2023/04/11 16:52:27;;;;;;;3.90;1.20;;;;;;;10.41;56.70;99547.50;10536280;28;20477;-77
2023/04/11 16:57:31;;;;;;;3.17;1.25;;;;;;;10.21;58.87;99537.72;10514416;28;20072;-78
2023/04/11 17:02:34;;;;;;;2.45;1.30;;;;;;;10.02;63.73;99519.19;10537553;28;20044;-78
2023/04/11 17:07:36;;;;;;;3.78;1.70;;;;;;;10.10;65.98;99530.28;10508475;28;20410;-77
2023/04/11 17:12:38;;;;;;;3.63;1.73;;;;;;;9.89;67.42;99538.94;10505912;28;20111;-77
2023/04/11 17:17:40;;;;;;;4.05;1.00;;;;;;;9.73;62.27;99537.78;10542520;28;20442;-77
2023/04/11 17:22:43;;;;;;;1.35;0.80;;;;;;;9.56;61.08;99539.25;10542850;28;20072;-77
2023/04/11 17:27:45;;;;;;;1.45;0.70;;;;;;;9.32;62.63;99533.09;10538474;28;20141;-77
2023/04/11 17:32:47;;;;;;;2.63;0.80;;;;;;;8.82;67.05;99545.28;10502349;28;20405;-76
2023/04/11 17:37:49;;;;;;;2.72;1.02;;;;;;;8.53;66.92;99548.81;10501641;28;20085;-77
2023/04/11 17:42:51;;;;;;;2.17;1.15;;;;;;;8.73;64.51;99556.06;10502227;28;20041;-77
2023/04/11 17:47:53;;;;;;;2.08;1.00;;;;;;;8.38;67.25;99560.63;10484852;28;20151;-77
2023/04/11 17:52:55;;;;;;;2.90;1.30;;;;;;;8.59;64.89;99566.97;10525278;28;20040;-77
2023/04/11 17:57:57;;;;;;;5.35;1.90;;;;;;;8.61;65.57;99577.41;10543329;28;20488;-77
2023/04/11 18:02:59;;;;;;;3.75;2.03;;;;;;;8.33;67.70;99572.97;10523845;28;20486;-76
2023/04/11 18:08:02;;;;;;;5.05;2.00;;;;;;;8.03;71.36;99583.44;10543333;28;20068;-77
2023/04/11 18:13:07;;;;;;;8.10;2.20;;;;;;;8.03;70.38;99586.06;10524067;28;20054;-78
2023/04/11 18:18:09;;;;;;;4.65;2.17;;;;;;;8.59;66.39;99594.03;10544273;28;20046;-76
2023/04/11 18:23:11;;;;;;;5.75;2.10;;;;;;;8.56;65.51;99616.84;10500896;28;20039;-76
2023/04/11 18:28:13;;;;;;;3.33;1.95;;;;;;;8.44;65.02;99628.53;10481812;28;20143;-77
2023/04/11 18:33:15;;;;;;;2.72;1.50;;;;;;;8.42;64.42;99656.53;10500467;28;20039;-76
2023/04/11 18:38:20;;;;;;;2.55;1.27;;;;;;;8.35;64.90;99689.84;10502306;28;20094;-77
2023/04/11 18:43:22;;;;;;;3.50;1.25;;;;;;;8.23;66.17;99694.56;10501464;28;20126;-78
2023/04/11 18:48:24;;;;;;;2.63;1.20;;;;;;;8.14;65.26;99723.63;10500913;28;20120;-78
2023/04/11 18:53:28;;;;;;;1.88;0.90;;;;;;;8.00;67.23;99765.88;10482511;28;20501;-74
2023/04/11 18:58:31;;;;;;;3.47;0.95;;;;;;;7.57;70.85;99767.81;10481393;28;20182;-77
2023/04/11 19:03:35;;;;;;;2.08;0.95;;;;;;;7.08;73.68;99768.03;10481483;28;20051;-77
2023/04/11 19:08:38;;;;;;;2.15;0.98;;;;;;;7.12;74.57;99771.44;10498770;28;20040;-77
2023/04/11 19:13:39;;;;;;;2.85;1.10;;;;;;;6.77;77.11;99765.22;10498898;28;20040;-76
2023/04/11 19:18:41;;;;;;;2.75;0.95;;;;;;;6.76;76.55;99758.28;10499892;28;20147;-77
2023/04/11 19:23:43;;;;;;;2.25;1.25;;;;;;;6.75;77.54;99740.88;10498546;28;20103;-78
2023/04/11 19:28:45;;;;;;;2.03;1.20;;;;;;;6.82;77.46;99739.88;10501319;28;20486;-77
2023/04/11 19:33:47;;;;;;;3.47;1.33;;;;;;;6.91;76.25;99731.00;10511370;28;20078;-77
2023/04/11 19:38:48;;;;;;;1.77;0.93;;;;;;;6.85;76.42;99724.13;10535602;28;20133;-78
2023/04/11 19:43:50;;;;;;;4.55;1.42;;;;;;;6.90;76.13;99729.25;10524150;28;20059;-79
2023/04/11 19:48:53;;;;;;;3.53;0.93;;;;;;;6.80;76.15;99728.59;10543040;28;20094;-79
2023/04/11 19:53:55;;;;;;;5.15;1.15;;;;;;;6.55;78.31;99736.06;10546428;28;20359;-78
2023/04/11 19:58:57;;;;;;;3.72;1.42;;;;;;;6.44;79.53;99719.75;10543712;28;20046;-77
2023/04/11 20:04:00;;;;;;;3.05;1.70;;;;;;;6.17;81.69;99724.63;10542675;28;20529;-78
2023/04/11 20:09:03;;;;;;;2.58;1.33;;;;;;;6.24;81.66;99722.75;10503034;28;20079;-77
2023/04/11 20:14:05;;;;;;;3.05;1.80;;;;;;;6.26;80.72;99716.63;10493284;28;20040;-78
2023/04/11 20:19:07;;;;;;;4.07;1.60;;;;;;;6.12;82.15;99717.78;10498749;28;20130;-79
2023/04/11 20:24:10;;;;;;;3.60;1.63;;;;;;;5.92;83.50;99707.69;10495496;28;20033;-76
2023/04/11 20:29:13;;;;;;;2.72;1.65;;;;;;;5.91;84.21;99708.56;10497550;28;20052;-78
2023/04/11 20:34:14;;;;;;;2.15;1.58;;;;;;;5.89;84.19;99706.00;10494141;28;20055;-77
2023/04/11 20:39:16;;;;;;;3.05;1.95;;;;;;;5.67;85.43;99686.41;10494562;28;20057;-76
2023/04/11 20:44:22;;;;;;;4.72;2.00;;;;;;;5.77;84.44;99685.34;10493830;28;20081;-77
2023/04/11 20:49:26;;;;;;;4.25;1.92;;;;;;;5.65;84.30;99686.41;10494029;28;20045;-78
2023/04/11 20:54:28;;;;;;;2.97;1.90;;;;;;;5.65;83.84;99682.94;10495977;28;20059;-77
2023/04/11 20:59:33;;;;;;;5.55;1.52;;;;;;;5.45;85.25;99676.31;10492350;28;20124;-77
2023/04/11 21:04:34;;;;;;;4.85;2.33;;;;;;;5.30;85.77;99681.78;10493377;28;20154;-77
2023/04/11 21:09:36;;;;;;;2.30;1.45;;;;;;;5.37;84.44;99679.94;10494431;28;20106;-77
2023/04/11 21:14:38;;;;;;;2.10;1.60;;;;;;;5.19;86.42;99686.31;10537689;28;20512;-78
2023/04/11 21:19:39;;;;;;;3.30;2.17;;;;;;;5.23;86.84;99686.22;10518233;28;20040;-78
2023/04/11 21:24:41;;;;;;;3.08;2.10;;;;;;;5.00;88.70;99691.81;10534644;28;20040;-78
2023/04/11 21:29:43;;;;;;;3.20;2.20;;;;;;;4.88;89.54;99685.91;10535245;28;20059;-78
2023/04/11 21:34:45;;;;;;;3.97;2.28;;;;;;;4.80;90.35;99689.47;10518706;28;20040;-78
2023/04/11 21:39:46;;;;;;;3.50;1.75;;;;;;;4.88;88.03;99688.50;10522020;28;20096;-78
2023/04/11 21:44:48;;;;;;;4.07;1.90;;;;;;;5.13;84.45;99696.81;10538826;28;20073;-77
2023/04/11 21:49:50;;;;;;;2.55;1.52;;;;;;;5.17;83.89;99694.13;10544176;28;20066;-77
2023/04/11 21:54:52;;;;;;;2.10;1.60;;;;;;;5.14;83.84;99690.72;10545456;28;20105;-77
2023/04/11 21:59:53;;;;;;;2.70;1.85;;;;;;;5.07;83.88;99696.00;10542680;28;20048;-78
2023/04/11 22:04:55;;;;;;;2.83;1.60;;;;;;;5.06;83.73;99699.50;10543333;28;20084;-78
2023/04/11 22:10:08;;;;;;;4.53;1.63;;;;;;;4.69;86.98;99706.09;10548099;28;20055;-79
2023/04/11 22:15:11;;;;;;;5.72;2.83;;;;;;;4.71;87.52;99699.16;10547214;28;20488;-78
2023/04/11 22:20:15;;;;;;;3.22;1.65;;;;;;;4.57;88.44;99719.28;10529562;28;20413;-78
2023/04/11 22:25:19;;;;;;;4.18;2.00;;;;;;;4.50;88.92;99719.34;10549616;28;20297;-78
2023/04/11 22:30:22;;;;;;;3.50;2.08;;;;;;;4.61;88.33;99718.38;10544661;28;20076;-77
2023/04/11 22:35:24;;;;;;;3.60;1.77;;;;;;;4.32;90.46;99716.13;10544104;28;20412;-77
2023/04/11 22:40:26;;;;;;;5.13;1.80;;;;;;;4.14;92.02;99710.25;10543295;28;20040;-77
2023/04/11 22:45:28;;;;;;;3.72;2.53;;;;;;;4.14;92.25;99712.84;10544415;28;20074;-77
2023/04/11 22:50:36;;;;;;;3.60;2.17;;;;;;;4.01;92.76;99708.66;10550162;28;20086;-77
2023/04/11 22:55:38;;;;;;;3.58;2.20;;;;;;;3.89;93.18;99701.81;10549334;28;20044;-78
2023/04/11 23:00:42;;;;;;;2.30;1.80;;;;;;;4.08;92.39;99712.06;10546130;28;20052;-77
2023/04/11 23:05:44;;;;;;;4.43;2.33;;;;;;;3.89;92.81;99696.63;10549373;28;20036;-78
2023/04/11 23:10:46;;;;;;;2.88;2.00;;;;;;;3.96;91.78;99700.88;10554582;28;20040;-78
2023/04/11 23:15:48;;;;;;;2.15;1.60;;;;;;;3.80;92.32;99694.09;10522575;28;20050;-79
2023/04/11 23:20:51;;;;;;;4.53;2.08;;;;;;;3.68;92.46;99689.91;10551254;28;20056;-78
2023/04/11 23:25:53;;;;;;;4.50;1.80;;;;;;;3.65;93.02;99670.88;10547593;28;20036;-77
2023/04/11 23:30:55;;;;;;;3.33;2.55;;;;;;;3.79;92.30;99667.25;10540919;28;20105;-79
2023/04/11 23:35:57;;;;;;;4.45;2.53;;;;;;;3.63;93.09;99662.22;10541355;28;20055;-79
2023/04/11 23:40:58;;;;;;;3.55;2.33;;;;;;;3.67;92.67;99658.72;10551513;28;20143;-78